Time;durP1;ratioP1;P1;durP2;ratioP2;P2;SDS_P1;SDS_P2;PMS_P1;PMS_P2;Temp;Humidity;BMP_temperature;BMP_pressure;BME280_temperature;BME280_humidity;BME280_pressure;Samples;Min_cycle;Max_cycle;Signal;HPM_P1;HPM_P2
2022/08/29 00:02:06;;;;;;;;;;;17.30;99.90;;;;;;5042105;28;19924;-71
2022/08/29 00:04:32;;;;;;;;;;;17.30;99.90;;;;;;5042036;28;19925;-71
2022/08/29 00:06:57;;;;;;;;;;;17.30;99.90;;;;;;5043134;28;20364;-71
2022/08/29 00:09:23;;;;;;;;;;;17.20;99.90;;;;;;5042025;28;20034;-71
2022/08/29 00:11:48;;;;;;;;;;;17.20;99.90;;;;;;5041547;28;19952;-71
2022/08/29 00:14:14;;;;;;;;;;;17.20;99.90;;;;;;5042992;28;20062;-71
2022/08/29 00:16:39;;;;;;;;;;;17.20;99.90;;;;;;5042785;28;19989;-71
2022/08/29 00:19:05;;;;;;;;;;;17.20;99.90;;;;;;5042371;28;20810;-71
2022/08/29 00:21:30;;;;;;;;;;;17.20;99.90;;;;;;5043214;28;19925;-72
2022/08/29 00:23:56;;;;;;;;;;;17.20;99.90;;;;;;5042432;28;20334;-71
2022/08/29 00:26:22;;;;;;;;;;;17.20;99.90;;;;;;5042780;28;19932;-71
2022/08/29 00:28:47;;;;;;;;;;;17.20;99.90;;;;;;5041801;28;19932;-71
2022/08/29 00:31:12;;;;;;;;;;;17.20;99.90;;;;;;5043233;28;19925;-71
2022/08/29 00:33:38;;;;;;;;;;;17.20;99.90;;;;;;5042952;28;19931;-71
2022/08/29 00:36:03;;;;;;;;;;;17.20;99.90;;;;;;5041636;28;19978;-71
2022/08/29 00:38:29;;;;;;;;;;;17.20;99.90;;;;;;5042128;28;19925;-72
2022/08/29 00:40:56;;;;;;;;;;;17.20;99.90;;;;;;5043541;28;19947;-71
2022/08/29 00:43:27;;;;;;;;;;;17.20;99.90;;;;;;5042287;28;19978;-71
2022/08/29 00:46:11;;;;;;;;;;;17.20;99.90;;;;;;5046752;28;19924;-71
2022/08/29 00:48:37;;;;;;;;;;;17.20;99.90;;;;;;5045375;28;19924;-71
2022/08/29 00:51:05;;;;;;;;;;;17.30;99.90;;;;;;5047122;28;19931;-71
2022/08/29 00:53:34;;;;;;;;;;;17.20;99.90;;;;;;5045959;28;20417;-71
2022/08/29 00:55:59;;;;;;;;;;;17.20;99.90;;;;;;5047000;28;19925;-71
2022/08/29 00:58:36;;;;;;;;;;;17.20;99.90;;;;;;5047571;28;20295;-71
2022/08/29 01:01:03;;;;;;;;;;;17.20;99.90;;;;;;5030360;28;19972;-71
2022/08/29 01:03:30;;;;;;;;;;;17.20;99.90;;;;;;5046055;28;20045;-72
2022/08/29 01:05:57;;;;;;;;;;;17.20;99.90;;;;;;5046865;28;19979;-72
2022/08/29 01:08:22;;;;;;;;;;;17.20;99.90;;;;;;5045645;28;20616;-72
2022/08/29 01:13:35;;;;;;;;;;;17.20;99.90;;;;;;5046160;28;19990;-72
2022/08/29 01:16:01;;;;;;;;;;;17.20;99.90;;;;;;5044992;28;19951;-72
2022/08/29 01:18:29;;;;;;;;;;;17.20;99.90;;;;;;5046746;28;19925;-71
2022/08/29 01:21:03;;;;;;;;;;;17.20;99.90;;;;;;5045558;28;20268;-72
2022/08/29 01:23:34;;;;;;;;;;;17.20;99.90;;;;;;5044772;28;19925;-73
2022/08/29 01:26:01;;;;;;;;;;;17.20;99.90;;;;;;5045011;28;19932;-72
2022/08/29 01:28:29;;;;;;;;;;;17.20;99.90;;;;;;5046638;28;20378;-71
2022/08/29 01:31:09;;;;;;;;;;;17.20;99.90;;;;;;5045429;28;19975;-71
2022/08/29 01:33:45;;;;;;;;;;;17.20;99.90;;;;;;5044059;28;19925;-72
2022/08/29 01:36:13;;;;;;;;;;;17.20;99.90;;;;;;5046229;28;20286;-72
2022/08/29 01:38:40;;;;;;;;;;;17.20;99.90;;;;;;5044675;28;19925;-71
2022/08/29 01:41:06;;;;;;;;;;;17.20;99.90;;;;;;5046237;28;19975;-72
2022/08/29 01:43:36;;;;;;;;;;;17.20;99.90;;;;;;5044439;28;19928;-72
2022/08/29 01:46:02;;;;;;;;;;;17.10;99.90;;;;;;5046165;28;20264;-72
2022/08/29 01:48:27;;;;;;;;;;;17.20;99.90;;;;;;5045221;28;19932;-71
2022/08/29 01:50:55;;;;;;;;;;;17.10;99.90;;;;;;5045435;28;20379;-71
2022/08/29 01:53:20;;;;;;;;;;;17.20;99.90;;;;;;5044165;28;19925;-72
2022/08/29 01:55:46;;;;;;;;;;;17.20;99.90;;;;;;5044808;28;19932;-72
2022/08/29 01:58:11;;;;;;;;;;;17.20;99.90;;;;;;5045704;28;19971;-72
2022/08/29 02:00:37;;;;;;;;;;;17.20;99.90;;;;;;5045648;28;20012;-72
2022/08/29 02:03:02;;;;;;;;;;;17.20;99.90;;;;;;5045651;28;19925;-72
2022/08/29 02:05:28;;;;;;;;;;;17.20;99.90;;;;;;5029762;28;20406;-71
2022/08/29 02:07:54;;;;;;;;;;;17.20;99.90;;;;;;5045282;28;19932;-72
2022/08/29 02:10:20;;;;;;;;;;;17.20;99.90;;;;;;5045398;28;19924;-71
2022/08/29 02:12:45;;;;;;;;;;;17.20;99.90;;;;;;5045178;28;19932;-72
2022/08/29 02:15:12;;;;;;;;;;;17.20;99.90;;;;;;5043563;28;19980;-71
2022/08/29 02:17:39;;;;;;;;;;;17.20;99.90;;;;;;5044251;28;21450;-72
2022/08/29 02:20:07;;;;;;;;;;;17.20;99.90;;;;;;5045345;28;19925;-71
2022/08/29 02:22:34;;;;;;;;;;;17.20;99.90;;;;;;5044136;28;19925;-72
2022/08/29 02:24:59;;;;;;;;;;;17.10;99.90;;;;;;5045268;28;19931;-72
2022/08/29 02:27:25;;;;;;;;;;;17.10;99.90;;;;;;5045539;28;19925;-71
2022/08/29 02:29:51;;;;;;;;;;;17.10;99.90;;;;;;5045294;28;19924;-71
2022/08/29 02:32:16;;;;;;;;;;;17.10;99.90;;;;;;5044862;28;19925;-71
2022/08/29 02:34:46;;;;;;;;;;;17.10;99.90;;;;;;5044892;28;20264;-71
2022/08/29 02:37:11;;;;;;;;;;;17.10;99.90;;;;;;5043107;28;20268;-71
2022/08/29 02:39:37;;;;;;;;;;;17.00;99.90;;;;;;5044575;28;19931;-72
2022/08/29 02:42:03;;;;;;;;;;;17.00;99.90;;;;;;5043000;28;19921;-72
2022/08/29 02:44:28;;;;;;;;;;;17.00;99.90;;;;;;5044735;28;19925;-73
2022/08/29 02:46:54;;;;;;;;;;;17.00;99.90;;;;;;5044914;28;20445;-71
2022/08/29 02:49:19;;;;;;;;;;;17.00;99.90;;;;;;5043908;28;20011;-71
2022/08/29 02:51:45;;;;;;;;;;;17.00;99.90;;;;;;5043474;28;19924;-72
2022/08/29 02:54:11;;;;;;;;;;;17.00;99.90;;;;;;5043563;28;19921;-72
2022/08/29 02:56:37;;;;;;;;;;;17.00;99.90;;;;;;5044523;28;19924;-72
2022/08/29 02:59:02;;;;;;;;;;;17.00;99.90;;;;;;5044550;28;19925;-71
2022/08/29 03:01:29;;;;;;;;;;;17.00;99.90;;;;;;5043743;28;19925;-71
2022/08/29 03:03:55;;;;;;;;;;;17.00;99.90;;;;;;5043250;28;19947;-71
2022/08/29 03:06:21;;;;;;;;;;;17.00;99.90;;;;;;5043214;28;20378;-72
2022/08/29 03:08:46;;;;;;;;;;;16.90;99.90;;;;;;5044005;28;20306;-72
2022/08/29 03:11:12;;;;;;;;;;;16.90;99.90;;;;;;5044404;28;19933;-71
2022/08/29 03:13:38;;;;;;;;;;;16.90;99.90;;;;;;5043879;28;19935;-72
2022/08/29 03:16:04;;;;;;;;;;;16.90;99.90;;;;;;5044448;28;19925;-72
2022/08/29 03:18:29;;;;;;;;;;;16.90;99.90;;;;;;5043747;28;20509;-73
2022/08/29 03:20:55;;;;;;;;;;;16.90;99.90;;;;;;5044461;28;19978;-71
2022/08/29 03:23:20;;;;;;;;;;;16.90;99.90;;;;;;5043356;28;19925;-71
2022/08/29 03:25:46;;;;;;;;;;;16.90;99.90;;;;;;5043348;28;19929;-71
2022/08/29 03:28:11;;;;;;;;;;;17.00;99.90;;;;;;5044144;28;19932;-71
2022/08/29 03:30:37;;;;;;;;;;;17.00;99.90;;;;;;5044298;28;19925;-72
2022/08/29 03:33:04;;;;;;;;;;;16.90;99.90;;;;;;5043756;28;19925;-72
2022/08/29 03:35:30;;;;;;;;;;;17.00;99.90;;;;;;5037336;28;19964;-72
2022/08/29 03:37:55;;;;;;;;;;;17.00;99.90;;;;;;5043168;28;19978;-71
2022/08/29 03:40:21;;;;;;;;;;;17.00;99.90;;;;;;5043928;28;20406;-72
2022/08/29 03:42:47;;;;;;;;;;;17.00;99.90;;;;;;5043386;28;20406;-71
2022/08/29 03:45:13;;;;;;;;;;;17.00;99.90;;;;;;5043405;28;20016;-71
2022/08/29 03:47:39;;;;;;;;;;;17.00;99.90;;;;;;5043983;28;19972;-72
2022/08/29 03:50:05;;;;;;;;;;;17.00;99.90;;;;;;5043664;28;19924;-72
2022/08/29 03:52:31;;;;;;;;;;;17.00;99.90;;;;;;5041064;28;20302;-71
2022/08/29 03:54:56;;;;;;;;;;;17.00;99.90;;;;;;5043847;28;19966;-71
2022/08/29 03:57:21;;;;;;;;;;;17.00;99.90;;;;;;5043426;28;19932;-71
2022/08/29 03:59:47;;;;;;;;;;;17.00;99.90;;;;;;5043258;28;19952;-72
2022/08/29 04:02:13;;;;;;;;;;;17.00;99.90;;;;;;5043989;28;20434;-72
2022/08/29 04:07:22;;;;;;;;;;;17.00;99.90;;;;;;5042682;28;20322;-72
2022/08/29 04:09:48;;;;;;;;;;;17.00;99.90;;;;;;5043144;28;19930;-71
2022/08/29 04:12:15;;;;;;;;;;;17.00;99.90;;;;;;5042386;28;19932;-72
2022/08/29 04:14:41;;;;;;;;;;;17.00;99.90;;;;;;5042746;28;19924;-71
2022/08/29 04:17:09;;;;;;;;;;;17.00;99.90;;;;;;5043253;28;19932;-72
2022/08/29 04:19:34;;;;;;;;;;;17.00;99.90;;;;;;5043139;28;20008;-71
2022/08/29 04:22:00;;;;;;;;;;;17.00;99.90;;;;;;5041889;28;20004;-71
2022/08/29 04:24:26;;;;;;;;;;;17.00;99.90;;;;;;5043723;28;19931;-71
2022/08/29 04:26:51;;;;;;;;;;;16.90;99.90;;;;;;5043032;28;20286;-71
2022/08/29 04:29:17;;;;;;;;;;;16.90;99.90;;;;;;5043004;28;20106;-71
2022/08/29 04:31:43;;;;;;;;;;;16.90;99.90;;;;;;5042843;28;19975;-72
2022/08/29 04:34:09;;;;;;;;;;;16.90;99.90;;;;;;5043557;28;19925;-72
2022/08/29 04:36:36;;;;;;;;;;;16.90;99.90;;;;;;5041943;28;19928;-71
2022/08/29 04:39:02;;;;;;;;;;;16.90;99.90;;;;;;5041796;28;19932;-72
2022/08/29 04:41:28;;;;;;;;;;;16.90;99.90;;;;;;5043252;28;19935;-72
2022/08/29 04:43:53;;;;;;;;;;;16.90;99.90;;;;;;5043155;28;19921;-71
2022/08/29 04:46:19;;;;;;;;;;;16.90;99.90;;;;;;5041812;28;20446;-71
2022/08/29 04:48:44;;;;;;;;;;;16.90;99.90;;;;;;5042550;28;19925;-72
2022/08/29 04:51:10;;;;;;;;;;;16.90;99.90;;;;;;5041163;28;19978;-71
2022/08/29 04:53:35;;;;;;;;;;;16.90;99.90;;;;;;5042525;28;19933;-71
2022/08/29 04:56:03;;;;;;;;;;;16.90;99.90;;;;;;5042693;28;19964;-72
2022/08/29 04:58:29;;;;;;;;;;;16.90;99.90;;;;;;5042668;28;19925;-74
2022/08/29 05:00:54;;;;;;;;;;;16.90;99.90;;;;;;5043036;28;19931;-71
2022/08/29 05:03:20;;;;;;;;;;;16.90;99.90;;;;;;5042582;28;19925;-71
2022/08/29 05:05:56;;;;;;;;;;;16.90;99.90;;;;;;5042528;28;19947;-72
2022/08/29 05:08:22;;;;;;;;;;;16.90;99.90;;;;;;5041737;28;19941;-71
2022/08/29 05:10:47;;;;;;;;;;;16.90;99.90;;;;;;5042106;28;19935;-71
2022/08/29 05:13:13;;;;;;;;;;;16.90;99.90;;;;;;5042033;28;20412;-72
2022/08/29 05:15:38;;;;;;;;;;;16.90;99.90;;;;;;5042242;28;19971;-72
2022/08/29 05:18:04;;;;;;;;;;;16.90;99.90;;;;;;5042476;28;20377;-72
2022/08/29 05:20:30;;;;;;;;;;;16.90;99.90;;;;;;5042483;28;19931;-73
2022/08/29 05:22:56;;;;;;;;;;;16.90;99.90;;;;;;5041876;28;19976;-73
2022/08/29 05:25:22;;;;;;;;;;;16.90;99.90;;;;;;5035546;28;20010;-73
2022/08/29 05:27:48;;;;;;;;;;;16.90;99.90;;;;;;5040817;28;19928;-73
2022/08/29 05:30:15;;;;;;;;;;;17.00;99.90;;;;;;5045207;28;19933;-74
2022/08/29 05:32:40;;;;;;;;;;;17.00;99.90;;;;;;5039137;28;19925;-71
2022/08/29 05:35:06;;;;;;;;;;;17.00;99.90;;;;;;5045709;28;20039;-72
2022/08/29 05:37:31;;;;;;;;;;;17.00;99.90;;;;;;5043774;28;20306;-70
2022/08/29 05:39:57;;;;;;;;;;;17.00;99.90;;;;;;5045043;28;20283;-70
2022/08/29 05:42:22;;;;;;;;;;;17.00;99.90;;;;;;5045940;28;19931;-70
2022/08/29 05:44:48;;;;;;;;;;;17.00;99.90;;;;;;5045567;28;19936;-73
2022/08/29 05:47:14;;;;;;;;;;;17.00;99.90;;;;;;5045175;28;19940;-74
2022/08/29 05:49:41;;;;;;;;;;;17.00;99.90;;;;;;5044813;28;20267;-71
2022/08/29 05:52:07;;;;;;;;;;;17.00;99.90;;;;;;5043891;28;19925;-71
2022/08/29 05:54:34;;;;;;;;;;;17.00;99.90;;;;;;5045179;28;19932;-70
2022/08/29 05:56:59;;;;;;;;;;;17.00;99.90;;;;;;5043967;28;20303;-72
2022/08/29 05:59:25;;;;;;;;;;;17.00;99.90;;;;;;5045736;28;19925;-73
2022/08/29 06:01:50;;;;;;;;;;;17.10;99.90;;;;;;5043256;28;19948;-72
2022/08/29 06:04:16;;;;;;;;;;;17.10;99.90;;;;;;5044048;28;20428;-73
2022/08/29 06:06:41;;;;;;;;;;;17.10;99.90;;;;;;5043972;28;19931;-72
2022/08/29 06:09:08;;;;;;;;;;;17.10;99.90;;;;;;5044592;28;20050;-72
2022/08/29 06:11:33;;;;;;;;;;;17.10;99.90;;;;;;5043991;28;19935;-72
2022/08/29 06:14:00;;;;;;;;;;;17.10;99.90;;;;;;5044555;28;19925;-73
2022/08/29 06:16:27;;;;;;;;;;;17.10;99.90;;;;;;5044511;28;19967;-72
2022/08/29 06:18:52;;;;;;;;;;;17.10;99.90;;;;;;5043114;28;19931;-73
2022/08/29 06:21:18;;;;;;;;;;;17.10;99.90;;;;;;5044054;28;19928;-72
2022/08/29 06:23:44;;;;;;;;;;;17.20;99.90;;;;;;5044098;28;19967;-72
2022/08/29 06:26:10;;;;;;;;;;;17.20;99.90;;;;;;5044993;28;19925;-72
2022/08/29 06:28:39;;;;;;;;;;;17.20;99.90;;;;;;5043886;28;20342;-73
2022/08/29 06:31:08;;;;;;;;;;;17.20;99.90;;;;;;5044393;28;20310;-72
2022/08/29 06:33:34;;;;;;;;;;;17.20;99.90;;;;;;5043734;28;19995;-73
2022/08/29 06:36:00;;;;;;;;;;;17.30;99.90;;;;;;5042121;28;20434;-72
2022/08/29 06:38:25;;;;;;;;;;;17.20;99.90;;;;;;5044417;28;19977;-72
2022/08/29 06:40:51;;;;;;;;;;;17.30;99.90;;;;;;5041637;28;19970;-73
2022/08/29 06:43:16;;;;;;;;;;;17.30;99.90;;;;;;5043844;28;20276;-72
2022/08/29 06:45:42;;;;;;;;;;;17.30;99.90;;;;;;5042234;28;19925;-72
2022/08/29 06:48:08;;;;;;;;;;;17.40;99.90;;;;;;5042765;28;20027;-72
2022/08/29 06:50:37;;;;;;;;;;;17.40;99.90;;;;;;5043869;28;20011;-72
2022/08/29 06:53:03;;;;;;;;;;;17.50;99.90;;;;;;5043291;28;19925;-72
2022/08/29 06:55:28;;;;;;;;;;;17.50;99.90;;;;;;5041751;28;20012;-73
2022/08/29 06:57:54;;;;;;;;;;;17.60;99.90;;;;;;5044293;28;20070;-72
2022/08/29 07:00:20;;;;;;;;;;;17.60;99.90;;;;;;5043166;28;19925;-72
2022/08/29 07:02:50;;;;;;;;;;;17.60;99.90;;;;;;5043003;28;19994;-73
2022/08/29 07:05:15;;;;;;;;;;;17.70;99.90;;;;;;5041985;28;19967;-72
2022/08/29 07:07:41;;;;;;;;;;;17.70;99.90;;;;;;5040887;28;19964;-73
2022/08/29 07:10:07;;;;;;;;;;;17.70;99.90;;;;;;5042133;28;19925;-73
2022/08/29 07:12:32;;;;;;;;;;;17.80;99.90;;;;;;5043204;28;19925;-73
2022/08/29 07:14:58;;;;;;;;;;;17.80;99.90;;;;;;5043660;28;19931;-73
2022/08/29 07:17:23;;;;;;;;;;;17.80;99.90;;;;;;5042282;28;19968;-73
2022/08/29 07:19:49;;;;;;;;;;;17.80;99.90;;;;;;5043011;28;20398;-73
2022/08/29 07:22:15;;;;;;;;;;;17.90;99.90;;;;;;5042675;28;20294;-72
2022/08/29 07:24:40;;;;;;;;;;;17.90;99.90;;;;;;5043202;28;20437;-73
2022/08/29 07:27:06;;;;;;;;;;;17.90;99.90;;;;;;5043085;28;20027;-73
2022/08/29 07:29:31;;;;;;;;;;;17.90;99.90;;;;;;5042649;28;19920;-73
2022/08/29 07:31:56;;;;;;;;;;;18.00;99.90;;;;;;5042944;28;19932;-73
2022/08/29 07:34:22;;;;;;;;;;;18.00;99.90;;;;;;5042768;28;19926;-72
2022/08/29 07:36:47;;;;;;;;;;;18.00;99.90;;;;;;5041913;28;19928;-73
2022/08/29 07:39:14;;;;;;;;;;;18.00;99.90;;;;;;5041752;28;19929;-72
2022/08/29 07:41:40;;;;;;;;;;;18.00;99.90;;;;;;5043146;28;19928;-72
2022/08/29 07:44:06;;;;;;;;;;;18.00;99.90;;;;;;5043029;28;19925;-72
2022/08/29 07:46:32;;;;;;;;;;;18.10;99.90;;;;;;5042566;28;19924;-73
2022/08/29 07:48:58;;;;;;;;;;;18.10;99.90;;;;;;5042865;28;19931;-72
2022/08/29 07:51:24;;;;;;;;;;;18.10;99.90;;;;;;5041973;28;20419;-72
2022/08/29 07:53:50;;;;;;;;;;;18.20;99.90;;;;;;5042246;28;19933;-73
2022/08/29 07:56:19;;;;;;;;;;;18.20;99.90;;;;;;5042346;28;20378;-72
2022/08/29 07:58:45;;;;;;;;;;;18.20;99.90;;;;;;5041759;28;19928;-72
2022/08/29 08:01:11;;;;;;;;;;;18.20;99.90;;;;;;5042973;28;20032;-73
2022/08/29 08:03:36;;;;;;;;;;;18.30;99.90;;;;;;5041912;28;20321;-72
2022/08/29 08:06:02;;;;;;;;;;;18.30;99.90;;;;;;5042092;28;20019;-73
2022/08/29 08:08:28;;;;;;;;;;;18.30;99.90;;;;;;5043281;28;19986;-72
2022/08/29 08:10:54;;;;;;;;;;;18.40;99.90;;;;;;5043342;28;20375;-73
2022/08/29 08:13:19;;;;;;;;;;;18.40;99.90;;;;;;5042227;28;20351;-73
2022/08/29 08:15:45;;;;;;;;;;;18.40;99.90;;;;;;5042247;28;19979;-73
2022/08/29 08:18:11;;;;;;;;;;;18.50;99.90;;;;;;5041564;28;19965;-72
2022/08/29 08:20:36;;;;;;;;;;;18.50;99.90;;;;;;5061382;28;19924;-73
2022/08/29 08:23:02;;;;;;;;;;;18.60;99.90;;;;;;5055856;28;20018;-73
2022/08/29 08:25:27;;;;;;;;;;;18.60;99.90;;;;;;5042829;28;19969;-72
2022/08/29 08:27:53;;;;;;;;;;;18.70;99.90;;;;;;5042627;28;19925;-72
2022/08/29 08:30:19;;;;;;;;;;;18.70;99.90;;;;;;5042486;28;20011;-72
2022/08/29 08:32:45;;;;;;;;;;;18.70;99.90;;;;;;5042315;28;20232;-72
2022/08/29 08:35:11;;;;;;;;;;;18.80;99.90;;;;;;5042201;28;20098;-72
2022/08/29 08:37:37;;;;;;;;;;;18.80;99.90;;;;;;5041030;28;19931;-73
2022/08/29 08:40:03;;;;;;;;;;;18.80;99.90;;;;;;5041351;28;19936;-72
2022/08/29 08:42:31;;;;;;;;;;;18.80;99.90;;;;;;5041975;28;19925;-72
2022/08/29 08:45:05;;;;;;;;;;;18.90;99.90;;;;;;5042305;28;20438;-72
2022/08/29 08:47:33;;;;;;;;;;;19.00;99.90;;;;;;5041701;28;19932;-74
2022/08/29 08:50:10;;;;;;;;;;;19.10;99.90;;;;;;5042937;28;20050;-74
2022/08/29 08:52:42;;;;;;;;;;;19.10;99.90;;;;;;5040633;28;19925;-74
2022/08/29 08:55:19;;;;;;;;;;;19.10;99.90;;;;;;5042884;28;19986;-76
2022/08/29 08:57:48;;;;;;;;;;;19.20;99.90;;;;;;5038815;28;20008;-74
2022/08/29 09:00:14;;;;;;;;;;;19.10;99.90;;;;;;5041776;28;19925;-75
2022/08/29 09:02:49;;;;;;;;;;;19.20;99.90;;;;;;5041690;28;20059;-74
2022/08/29 09:05:18;;;;;;;;;;;19.20;99.90;;;;;;5041897;28;19931;-74
2022/08/29 09:07:54;;;;;;;;;;;19.30;99.90;;;;;;5060348;28;20000;-75
2022/08/29 09:10:38;;;;;;;;;;;19.40;99.90;;;;;;5046640;28;19928;-75
2022/08/29 09:13:20;;;;;;;;;;;19.40;99.90;;;;;;5044809;28;19925;-73
2022/08/29 09:15:47;;;;;;;;;;;19.40;99.90;;;;;;5036478;28;19982;-74
2022/08/29 09:18:27;;;;;;;;;;;19.50;99.90;;;;;;5045565;28;19924;-74
2022/08/29 09:20:53;;;;;;;;;;;19.50;99.90;;;;;;5045858;28;19924;-74
2022/08/29 09:23:38;;;;;;;;;;;19.50;99.90;;;;;;5045505;28;20023;-74
2022/08/29 09:26:04;;;;;;;;;;;19.50;99.90;;;;;;5045401;28;19932;-74
2022/08/29 09:28:30;;;;;;;;;;;19.60;99.90;;;;;;5044249;28;19924;-74
2022/08/29 09:31:14;;;;;;;;;;;19.60;99.90;;;;;;5045180;28;19925;-74
2022/08/29 09:33:41;;;;;;;;;;;19.70;99.90;;;;;;5043203;28;20355;-74
2022/08/29 09:36:10;;;;;;;;;;;19.70;99.90;;;;;;5043880;28;19968;-73
2022/08/29 09:38:36;;;;;;;;;;;19.70;99.90;;;;;;5043860;28;19976;-73
2022/08/29 09:41:03;;;;;;;;;;;19.70;99.90;;;;;;5043997;28;19983;-75
2022/08/29 09:43:43;;;;;;;;;;;19.60;99.90;;;;;;5043498;28;19925;-74
2022/08/29 09:46:17;;;;;;;;;;;19.60;99.90;;;;;;5043879;28;19971;-73
2022/08/29 09:48:47;;;;;;;;;;;19.60;99.90;;;;;;5044648;28;19931;-75
2022/08/29 09:51:24;;;;;;;;;;;19.60;99.90;;;;;;5043541;28;19929;-74
2022/08/29 09:53:53;;;;;;;;;;;19.60;99.90;;;;;;5043498;28;20220;-74
2022/08/29 09:56:23;;;;;;;;;;;19.60;99.90;;;;;;5043432;28;19929;-74
2022/08/29 09:58:58;;;;;;;;;;;19.60;99.90;;;;;;5041973;28;19928;-74
2022/08/29 10:01:23;;;;;;;;;;;19.70;99.90;;;;;;5040987;28;19925;-74
2022/08/29 10:03:57;;;;;;;;;;;19.60;99.90;;;;;;5040906;28;19936;-74
2022/08/29 10:06:24;;;;;;;;;;;19.60;99.90;;;;;;5041580;28;20650;-75
2022/08/29 10:09:05;;;;;;;;;;;19.60;99.90;;;;;;5040955;28;19936;-75
2022/08/29 10:11:33;;;;;;;;;;;19.60;99.90;;;;;;5040860;28;19929;-76
2022/08/29 10:14:05;;;;;;;;;;;19.70;99.90;;;;;;5041938;28;19932;-74
2022/08/29 10:16:52;;;;;;;;;;;19.80;99.90;;;;;;5043519;28;19929;-74
2022/08/29 10:19:21;;;;;;;;;;;19.80;99.90;;;;;;5045728;28;20028;-74
2022/08/29 10:21:56;;;;;;;;;;;19.80;99.90;;;;;;5043563;28;19979;-77
2022/08/29 10:24:29;;;;;;;;;;;19.80;99.90;;;;;;5045743;28;19924;-78
2022/08/29 10:27:14;;;;;;;;;;;19.80;99.90;;;;;;5043486;28;19971;-74
2022/08/29 10:29:49;;;;;;;;;;;19.80;99.90;;;;;;5040074;28;19932;-75
2022/08/29 10:32:14;;;;;;;;;;;19.80;99.90;;;;;;5028674;28;20335;-74
2022/08/29 10:34:55;;;;;;;;;;;19.80;99.90;;;;;;5037274;28;19925;-73
2022/08/29 10:37:24;;;;;;;;;;;19.80;99.90;;;;;;5043186;28;19939;-74
2022/08/29 10:40:00;;;;;;;;;;;19.80;99.90;;;;;;5044444;28;19929;-76
2022/08/29 10:42:28;;;;;;;;;;;19.80;99.90;;;;;;5043714;28;20032;-73
2022/08/29 10:44:56;;;;;;;;;;;19.80;99.90;;;;;;5036124;28;20019;-74
2022/08/29 10:47:32;;;;;;;;;;;19.80;99.90;;;;;;5023973;28;19932;-74
2022/08/29 10:49:57;;;;;;;;;;;19.80;99.90;;;;;;5036866;28;20016;-74
2022/08/29 10:52:32;;;;;;;;;;;19.80;99.90;;;;;;5037787;28;20015;-74
2022/08/29 10:55:16;;;;;;;;;;;19.90;99.90;;;;;;5050826;28;20509;-74
2022/08/29 10:57:44;;;;;;;;;;;19.90;99.90;;;;;;5036996;28;19929;-73
2022/08/29 11:00:12;;;;;;;;;;;19.90;99.90;;;;;;5042111;28;19983;-74
2022/08/29 11:02:44;;;;;;;;;;;19.90;99.90;;;;;;5038255;28;19925;-74
2022/08/29 11:05:15;;;;;;;;;;;20.00;99.90;;;;;;5037055;28;20043;-74
2022/08/29 11:07:44;;;;;;;;;;;20.00;99.90;;;;;;5042378;28;19924;-69
2022/08/29 11:10:13;;;;;;;;;;;20.00;99.90;;;;;;5042445;28;20008;-69
2022/08/29 11:12:44;;;;;;;;;;;20.10;99.90;;;;;;5042402;28;19925;-69
2022/08/29 11:15:15;;;;;;;;;;;20.10;99.90;;;;;;5043484;28;19925;-69
2022/08/29 11:17:43;;;;;;;;;;;20.20;99.90;;;;;;5040756;28;20016;-69
2022/08/29 11:20:12;;;;;;;;;;;20.20;99.90;;;;;;5042867;28;19925;-69
2022/08/29 11:22:40;;;;;;;;;;;20.30;99.90;;;;;;5042631;28;19924;-68
2022/08/29 11:25:06;;;;;;;;;;;20.40;99.90;;;;;;5037895;28;19925;-67
2022/08/29 11:27:43;;;;;;;;;;;20.40;99.90;;;;;;5036794;28;20401;-68
2022/08/29 11:30:09;;;;;;;;;;;20.40;99.90;;;;;;5042239;28;19929;-68
2022/08/29 11:32:49;;;;;;;;;;;20.40;99.90;;;;;;5040890;28;19933;-68
2022/08/29 11:35:19;;;;;;;;;;;20.40;99.90;;;;;;5036852;28;19929;-67
2022/08/29 11:37:56;;;;;;;;;;;20.40;99.90;;;;;;5043569;28;19925;-68
2022/08/29 11:40:40;;;;;;;;;;;20.50;99.90;;;;;;5042469;28;20019;-68
2022/08/29 11:43:09;;;;;;;;;;;20.40;99.90;;;;;;5041936;28;19935;-68
2022/08/29 11:45:36;;;;;;;;;;;20.40;99.90;;;;;;5043664;28;19925;-69
2022/08/29 11:48:17;;;;;;;;;;;20.40;99.90;;;;;;5042179;28;19970;-68
2022/08/29 11:50:43;;;;;;;;;;;20.30;99.90;;;;;;5040555;28;19925;-68
2022/08/29 11:53:22;;;;;;;;;;;20.30;99.90;;;;;;5043485;28;19979;-69
2022/08/29 11:56:06;;;;;;;;;;;20.20;99.90;;;;;;5041604;28;19975;-68
2022/08/29 11:58:32;;;;;;;;;;;20.20;99.90;;;;;;5040292;28;20295;-70
2022/08/29 12:00:58;;;;;;;;;;;20.20;99.90;;;;;;5023666;28;19925;-69
2022/08/29 12:03:33;;;;;;;;;;;20.20;99.90;;;;;;5021826;28;19925;-70
2022/08/29 12:06:17;;;;;;;;;;;20.30;99.90;;;;;;5021697;28;19925;-70
2022/08/29 12:09:16;;;;;;;;;;;20.30;99.90;;;;;;5042338;28;19925;-69
2022/08/29 12:12:00;;;;;;;;;;;20.30;99.90;;;;;;4991602;28;19991;-69
2022/08/29 12:14:29;;;;;;;;;;;20.30;99.90;;;;;;5021633;28;19925;-70
2022/08/29 12:16:55;;;;;;;;;;;20.30;99.90;;;;;;5040175;28;19925;-69
2022/08/29 12:19:43;;;;;;;;;;;20.30;99.90;;;;;;5034406;28;19932;-68
2022/08/29 12:22:09;;;;;;;;;;;20.30;99.90;;;;;;5000984;28;20765;-68
2022/08/29 12:24:44;;;;;;;;;;;20.40;99.90;;;;;;5035276;28;19932;-70
2022/08/29 12:27:41;;;;;;;;;;;20.40;99.90;;;;;;5038673;28;19929;-69
2022/08/29 12:30:09;;;;;;;;;;;20.40;99.90;;;;;;5039383;28;20387;-68
2022/08/29 12:32:45;;;;;;;;;;;20.40;99.90;;;;;;5039847;28;19929;-69
2022/08/29 12:35:30;;;;;;;;;;;20.50;99.90;;;;;;5041108;28;19924;-69
2022/08/29 12:38:15;;;;;;;;;;;20.60;99.90;;;;;;5040554;28;19925;-68
2022/08/29 12:40:40;;;;;;;;;;;20.60;99.90;;;;;;5043741;28;19925;-68
2022/08/29 12:43:14;;;;;;;;;;;20.60;99.90;;;;;;5046178;28;19950;-69
2022/08/29 12:45:44;;;;;;;;;;;20.60;99.90;;;;;;5044749;28;19987;-69
2022/08/29 12:48:14;;;;;;;;;;;20.50;99.90;;;;;;5046845;28;19971;-69
2022/08/29 12:50:44;;;;;;;;;;;20.50;99.90;;;;;;5043940;28;19963;-68
2022/08/29 12:53:22;;;;;;;;;;;20.50;99.90;;;;;;5046454;28;19978;-68
2022/08/29 12:55:52;;;;;;;;;;;20.40;99.90;;;;;;5045335;28;19935;-69
2022/08/29 12:58:37;;;;;;;;;;;20.50;99.90;;;;;;5045383;28;19925;-68
2022/08/29 13:01:04;;;;;;;;;;;20.40;99.90;;;;;;5044202;28;19924;-69
2022/08/29 13:03:29;;;;;;;;;;;20.50;99.90;;;;;;5044367;28;19935;-69
2022/08/29 13:06:02;;;;;;;;;;;20.50;99.90;;;;;;5045966;28;19936;-68
2022/08/29 13:08:30;;;;;;;;;;;20.50;99.90;;;;;;5044929;28;19948;-68
2022/08/29 13:10:58;;;;;;;;;;;20.50;99.90;;;;;;5046425;28;19925;-68
2022/08/29 13:13:24;;;;;;;;;;;20.50;99.90;;;;;;5046289;28;19928;-69
2022/08/29 13:15:54;;;;;;;;;;;20.50;99.90;;;;;;5043383;28;20154;-69
2022/08/29 13:18:20;;;;;;;;;;;20.50;99.90;;;;;;5061467;28;19925;-67
2022/08/29 13:21:02;;;;;;;;;;;20.60;99.90;;;;;;5058357;28;19930;-67
2022/08/29 13:23:31;;;;;;;;;;;20.60;99.90;;;;;;5061677;28;19925;-69
2022/08/29 13:25:59;;;;;;;;;;;20.60;99.90;;;;;;5045326;28;19925;-69
2022/08/29 13:28:27;;;;;;;;;;;20.70;99.90;;;;;;5042928;28;20421;-69
2022/08/29 13:31:12;;;;;;;;;;;20.70;99.90;;;;;;5044002;28;20369;-69
2022/08/29 13:33:39;;;;;;;;;;;20.70;99.90;;;;;;5044237;28;19925;-70
2022/08/29 13:36:31;;;;;;;;;;;20.70;99.90;;;;;;5043996;28;19924;-69
2022/08/29 13:39:25;;;;;;;;;;;20.60;99.90;;;;;;5040685;28;20027;-69
2022/08/29 13:41:56;;;;;;;;;;;20.60;99.90;;;;;;5043225;28;20129;-69
2022/08/29 13:44:23;;;;;;;;;;;20.60;99.90;;;;;;5044679;28;19932;-69
2022/08/29 13:46:50;;;;;;;;;;;20.60;99.90;;;;;;5043518;28;19929;-69
2022/08/29 13:49:20;;;;;;;;;;;20.50;99.90;;;;;;5045076;28;19964;-69
2022/08/29 13:51:46;;;;;;;;;;;20.50;99.90;;;;;;5044070;28;19986;-69
2022/08/29 13:54:11;;;;;;;;;;;20.50;99.90;;;;;;5044441;28;20434;-69
2022/08/29 13:56:37;;;;;;;;;;;20.50;99.90;;;;;;5044083;28;20395;-69
2022/08/29 13:59:03;;;;;;;;;;;20.50;99.90;;;;;;5044895;28;19978;-69
2022/08/29 14:01:28;;;;;;;;;;;20.40;99.90;;;;;;5044547;28;20078;-70
2022/08/29 14:03:55;;;;;;;;;;;20.30;99.90;;;;;;5043622;28;20010;-69
2022/08/29 14:06:21;;;;;;;;;;;20.20;99.90;;;;;;5043484;28;19985;-69
2022/08/29 14:08:47;;;;;;;;;;;20.20;99.90;;;;;;5044080;28;20391;-69
2022/08/29 14:11:13;;;;;;;;;;;20.10;99.90;;;;;;5044378;28;20279;-69
2022/08/29 14:13:39;;;;;;;;;;;20.00;99.90;;;;;;5042809;28;20069;-68
2022/08/29 14:16:04;;;;;;;;;;;20.00;99.90;;;;;;5026554;28;19925;-69
2022/08/29 14:18:30;;;;;;;;;;;19.90;99.90;;;;;;5043038;28;20015;-70
2022/08/29 14:20:55;;;;;;;;;;;19.90;99.90;;;;;;5043708;28;20015;-69
2022/08/29 14:23:21;;;;;;;;;;;19.90;99.90;;;;;;5043978;28;19932;-69
2022/08/29 14:25:46;;;;;;;;;;;19.90;99.90;;;;;;5044422;28;19932;-69
2022/08/29 14:28:12;;;;;;;;;;;19.90;99.90;;;;;;5043960;28;19921;-69
2022/08/29 14:30:37;;;;;;;;;;;20.00;99.90;;;;;;5043954;28;19925;-69